createdAt,value
2023-05-21T00:01:06.048Z,61.25
2023-05-21T00:03:35.005Z,61.32
2023-05-21T00:06:03.689Z,61.56
2023-05-21T00:08:30.628Z,61.47
2023-05-21T00:10:57.199Z,61.09
2023-05-21T00:13:23.808Z,61.56
2023-05-21T00:15:50.436Z,61.65
2023-05-21T00:18:17.035Z,61.47
2023-05-21T00:20:43.620Z,61.76
2023-05-21T00:23:10.313Z,61.88
2023-05-21T00:25:36.974Z,61.78
2023-05-21T00:28:03.939Z,61.69
2023-05-21T00:30:30.503Z,62.13
2023-05-21T00:32:58.668Z,62.16
2023-05-21T00:35:25.389Z,61.95
2023-05-21T00:37:52.121Z,61.97
2023-05-21T00:40:19.006Z,61.87
2023-05-21T00:42:47.797Z,61.85
2023-05-21T00:45:15.708Z,62.12
2023-05-21T00:47:44.058Z,62.46
2023-05-21T00:50:11.968Z,62.74
2023-05-21T00:52:41.965Z,62.44
2023-05-21T00:55:10.757Z,62.75
2023-05-21T00:57:37.627Z,63.13
2023-05-21T01:00:07.580Z,63.08
2023-05-21T01:02:37.320Z,63.29
2023-05-21T01:05:06.605Z,63.12
2023-05-21T01:07:35.699Z,63.18
2023-05-21T01:10:05.393Z,63.34
2023-05-21T01:12:33.172Z,63.54
2023-05-21T01:15:02.151Z,63.49
2023-05-21T01:17:30.305Z,63.54
2023-05-21T01:19:58.577Z,63.78
2023-05-21T01:22:26.058Z,63.48
2023-05-21T01:24:55.413Z,63.48
2023-05-21T01:27:22.764Z,63.76
2023-05-21T01:29:49.535Z,64.31
2023-05-21T01:32:21.175Z,63.99
2023-05-21T01:35:02.232Z,63.49
2023-05-21T01:37:31.361Z,63.82
2023-05-21T01:40:05.927Z,63.79
2023-05-21T01:42:35.427Z,64.16
2023-05-21T01:45:06.211Z,63.93
2023-05-21T01:47:33.229Z,64.56
2023-05-21T01:50:01.448Z,64.13
2023-05-21T01:52:28.065Z,64.46
2023-05-21T01:54:57.282Z,64.42
2023-05-21T01:57:23.877Z,64.90
2023-05-21T01:59:53.297Z,64.70
2023-05-21T02:02:20.105Z,64.66
2023-05-21T02:04:46.753Z,64.91
2023-05-21T02:07:15.040Z,64.81
2023-05-21T02:09:41.822Z,65.00
2023-05-21T02:12:08.622Z,64.93
2023-05-21T02:14:35.488Z,65.27
2023-05-21T02:17:02.020Z,65.38
2023-05-21T02:19:28.799Z,65.93
2023-05-21T02:21:56.560Z,66.12
2023-05-21T02:24:24.367Z,65.84
2023-05-21T02:26:52.312Z,66.01
2023-05-21T02:29:19.265Z,66.03
2023-05-21T02:31:45.852Z,66.13
2023-05-21T02:34:12.477Z,66.17
2023-05-21T02:36:41.590Z,66.50
2023-05-21T02:39:08.139Z,66.26
2023-05-21T02:41:34.723Z,66.41
2023-05-21T02:44:01.416Z,66.80
2023-05-21T02:46:27.992Z,67.19
2023-05-21T02:48:54.613Z,67.46
2023-05-21T02:51:21.138Z,66.92
2023-05-21T02:53:48.511Z,67.29
2023-05-21T02:56:15.191Z,67.33
2023-05-21T02:58:41.889Z,67.28
2023-05-21T03:01:08.551Z,67.25
2023-05-21T03:03:35.205Z,67.32
2023-05-21T03:06:01.852Z,67.93
2023-05-21T03:08:28.400Z,68.02
2023-05-21T03:10:55.374Z,68.02
2023-05-21T03:13:22.250Z,67.95
2023-05-21T03:15:48.967Z,68.60
2023-05-21T03:18:16.465Z,68.58
2023-05-21T03:20:49.957Z,68.64
2023-05-21T03:23:16.891Z,69.03
2023-05-21T03:25:44.001Z,68.91
2023-05-21T03:28:10.586Z,69.23
2023-05-21T03:30:38.308Z,69.23
2023-05-21T03:33:06.566Z,69.43
2023-05-21T03:35:33.395Z,69.71
2023-05-21T03:38:00.129Z,69.52
2023-05-21T03:40:26.757Z,70.05
2023-05-21T03:42:53.328Z,69.96
2023-05-21T03:45:19.903Z,69.81
2023-05-21T03:47:46.531Z,70.11
2023-05-21T03:50:13.128Z,70.52
2023-05-21T03:52:39.858Z,70.99
2023-05-21T03:55:06.794Z,70.76
2023-05-21T03:57:33.473Z,71.42
2023-05-21T04:00:00.059Z,71.53
2023-05-21T04:02:27.553Z,71.25
2023-05-21T04:04:55.780Z,71.41
2023-05-21T04:07:22.666Z,71.45
2023-05-21T04:09:50.250Z,70.94
2023-05-21T04:12:20.151Z,71.59
2023-05-21T04:14:47.302Z,71.62
2023-05-21T04:17:14.007Z,71.25
2023-05-21T04:19:40.922Z,71.38
2023-05-21T04:22:07.649Z,72.13
2023-05-21T04:24:34.209Z,72.05
2023-05-21T04:27:01.788Z,72.07
2023-05-21T04:29:30.030Z,71.67
2023-05-21T04:31:56.645Z,72.19
2023-05-21T04:34:23.611Z,72.02
2023-05-21T04:36:51.954Z,72.15
2023-05-21T04:39:18.505Z,72.61
2023-05-21T04:41:45.198Z,72.04
2023-05-21T04:44:14.867Z,72.05
2023-05-21T04:46:42.075Z,72.33
2023-05-21T04:49:10.221Z,72.64
2023-05-21T04:51:37.811Z,72.50
2023-05-21T04:54:04.478Z,72.55
2023-05-21T04:56:32.020Z,72.38
2023-05-21T04:58:59.140Z,72.46
2023-05-21T05:01:27.412Z,72.47
2023-05-21T05:03:54.028Z,73.17
2023-05-21T05:06:21.490Z,72.51
2023-05-21T05:08:49.211Z,72.88
2023-05-21T05:11:15.735Z,72.83
2023-05-21T05:13:42.438Z,72.84
2023-05-21T05:16:09.610Z,72.79
2023-05-21T05:18:36.514Z,72.91
2023-05-21T05:21:03.160Z,73.15
2023-05-21T05:23:29.738Z,73.40
2023-05-21T05:25:57.673Z,73.20
2023-05-21T05:28:24.498Z,73.22
2023-05-21T05:30:51.347Z,73.57
2023-05-21T05:33:18.349Z,73.62
2023-05-21T05:35:46.949Z,73.31
2023-05-21T05:38:17.130Z,73.31
2023-05-21T05:40:43.916Z,73.70
2023-05-21T05:43:10.823Z,73.85
2023-05-21T05:45:37.950Z,73.92
2023-05-21T05:48:05.062Z,73.76
2023-05-21T05:50:31.808Z,73.63
2023-05-21T05:52:58.439Z,73.31
2023-05-21T05:55:26.661Z,73.41
2023-05-21T05:57:56.408Z,73.36
2023-05-21T06:00:23.131Z,73.43
2023-05-21T06:02:50.044Z,73.39
2023-05-21T06:05:16.866Z,73.39
2023-05-21T06:07:43.518Z,73.43
2023-05-21T06:10:10.516Z,73.51
2023-05-21T06:12:37.091Z,73.51
2023-05-21T06:15:04.423Z,73.10
2023-05-21T06:17:31.678Z,72.94
2023-05-21T06:19:58.356Z,72.80
2023-05-21T06:22:25.635Z,72.92
2023-05-21T06:24:52.691Z,72.74
2023-05-21T06:27:19.349Z,72.26
2023-05-21T06:29:45.913Z,71.95
2023-05-21T06:32:12.546Z,70.59
2023-05-21T06:34:39.119Z,71.34
2023-05-21T06:37:05.788Z,70.74
2023-05-21T06:39:53.536Z,70.98
2023-05-21T06:42:20.166Z,70.79
2023-05-21T06:44:46.914Z,70.77
2023-05-21T06:47:13.475Z,71.06
2023-05-21T06:49:39.970Z,70.89
2023-05-21T06:52:06.922Z,71.04
2023-05-21T06:54:35.538Z,70.62
2023-05-21T06:57:02.523Z,70.55
2023-05-21T06:59:30.214Z,70.27
2023-05-21T07:01:56.831Z,70.30
2023-05-21T07:04:23.528Z,70.34
2023-05-21T07:06:50.053Z,70.74
2023-05-21T07:09:18.195Z,70.52
2023-05-21T07:11:44.741Z,70.41
2023-05-21T07:14:11.326Z,70.50
2023-05-21T07:16:39.095Z,70.51
2023-05-21T07:19:05.706Z,70.51
2023-05-21T07:21:32.292Z,70.33
2023-05-21T07:23:59.255Z,70.14
2023-05-21T07:26:26.570Z,69.47
2023-05-21T07:28:53.242Z,70.49
2023-05-21T07:31:19.780Z,70.38
2023-05-21T07:33:46.367Z,69.39
2023-05-21T07:36:15.474Z,68.91
2023-05-21T07:38:42.051Z,69.02
2023-05-21T07:41:08.775Z,68.63
2023-05-21T07:43:36.345Z,68.23
2023-05-21T07:46:02.988Z,67.54
2023-05-21T07:48:29.725Z,67.58
2023-05-21T07:50:58.469Z,67.13
2023-05-21T07:53:25.158Z,66.99
2023-05-21T07:55:51.938Z,67.70
2023-05-21T07:58:20.079Z,67.24
2023-05-21T08:00:47.925Z,66.78
2023-05-21T08:03:17.463Z,66.94
2023-05-21T08:05:48.641Z,67.13
2023-05-21T08:08:17.836Z,66.53
2023-05-21T08:10:45.299Z,67.16
2023-05-21T08:13:12.861Z,67.27
2023-05-21T08:15:39.688Z,67.90
2023-05-21T08:18:06.640Z,66.52
2023-05-21T08:20:33.651Z,66.70
2023-05-21T08:23:00.892Z,67.06
2023-05-21T08:25:27.746Z,66.46
2023-05-21T08:27:54.580Z,66.45
2023-05-21T08:30:21.631Z,65.75
2023-05-21T08:32:49.218Z,65.98
2023-05-21T08:35:16.206Z,66.29
2023-05-21T08:37:42.916Z,66.33
2023-05-21T08:40:11.407Z,65.32
2023-05-21T08:42:49.397Z,66.65
2023-05-21T08:45:21.093Z,65.61
2023-05-21T08:47:48.111Z,65.24
2023-05-21T08:50:18.322Z,65.68
2023-05-21T08:52:45.022Z,65.77
2023-05-21T08:55:12.599Z,65.24
2023-05-21T08:57:43.949Z,65.92
2023-05-21T09:00:11.880Z,65.37
2023-05-21T09:02:40.893Z,64.66
2023-05-21T09:05:09.768Z,64.39
2023-05-21T09:07:44.492Z,64.02
2023-05-21T09:10:13.283Z,63.95
2023-05-21T09:12:41.303Z,64.15
2023-05-21T09:15:08.724Z,64.08
2023-05-21T09:17:35.945Z,63.59
2023-05-21T09:20:14.728Z,63.93
2023-05-21T09:22:43.750Z,62.72
2023-05-21T09:25:12.903Z,63.38
2023-05-21T09:27:40.151Z,62.94
2023-05-21T09:30:11.233Z,63.20
2023-05-21T09:32:39.214Z,62.54
2023-05-21T09:35:09.581Z,62.78
2023-05-21T09:37:45.028Z,62.15
2023-05-21T09:40:13.253Z,61.27
2023-05-21T09:42:40.573Z,62.55
2023-05-21T09:45:09.442Z,62.73
2023-05-21T09:47:44.702Z,62.85
2023-05-21T09:50:13.614Z,62.40
2023-05-21T09:52:42.152Z,64.71
2023-05-21T09:55:28.930Z,61.69
2023-05-21T09:57:55.641Z,62.55
2023-05-21T10:00:23.399Z,61.60
2023-05-21T10:02:54.217Z,60.44
2023-05-21T10:05:21.180Z,60.38
2023-05-21T10:07:54.508Z,60.55
2023-05-21T10:10:22.858Z,61.38
2023-05-21T10:12:56.454Z,60.07
2023-05-21T10:15:25.295Z,60.34
2023-05-21T10:17:52.927Z,59.50
2023-05-21T10:20:20.878Z,59.53
2023-05-21T10:22:48.389Z,59.87
2023-05-21T10:25:15.698Z,60.34
2023-05-21T10:27:42.547Z,60.20
2023-05-21T10:30:10.159Z,59.58
2023-05-21T10:32:38.352Z,59.33
2023-05-21T10:35:06.647Z,59.02
2023-05-21T10:37:33.228Z,59.02
2023-05-21T10:39:59.879Z,58.93
2023-05-21T10:42:51.026Z,58.94
2023-05-21T10:45:51.212Z,57.49
2023-05-21T10:48:36.697Z,57.73
2023-05-21T10:51:24.510Z,57.36
2023-05-21T10:54:09.563Z,56.66
2023-05-21T10:56:46.486Z,56.67
2023-05-21T10:59:25.489Z,57.10
2023-05-21T11:01:53.246Z,56.09
2023-05-21T11:04:27.428Z,56.37
2023-05-21T11:06:54.248Z,55.66
2023-05-21T11:09:20.916Z,56.08
2023-05-21T11:11:52.472Z,55.47
2023-05-21T11:14:55.310Z,55.34
2023-05-21T11:17:41.970Z,56.08
2023-05-21T11:20:11.584Z,55.13
2023-05-21T11:22:38.203Z,56.80
2023-05-21T11:25:05.976Z,55.46
2023-05-21T11:27:34.822Z,54.55
2023-05-21T11:30:04.774Z,55.29
2023-05-21T11:32:31.702Z,54.42
2023-05-21T11:35:03.567Z,54.00
2023-05-21T11:37:31.517Z,54.05
2023-05-21T11:40:16.696Z,53.46
2023-05-21T11:42:44.117Z,54.09
2023-05-21T11:45:11.420Z,53.41
2023-05-21T11:47:40.304Z,54.82
2023-05-21T11:50:14.559Z,53.32
2023-05-21T11:52:42.296Z,53.68
2023-05-21T11:55:09.632Z,53.24
2023-05-21T11:57:37.384Z,53.16
2023-05-21T12:00:16.716Z,53.81
2023-05-21T12:02:46.453Z,53.89
2023-05-21T12:05:13.411Z,53.09
2023-05-21T12:07:40.101Z,54.48
2023-05-21T12:10:07.611Z,55.17
2023-05-21T12:12:50.022Z,53.41
2023-05-21T12:15:21.554Z,53.31
2023-05-21T12:17:51.230Z,53.14
2023-05-21T12:20:18.150Z,53.61
2023-05-21T12:22:44.843Z,52.47
2023-05-21T12:25:12.365Z,53.46
2023-05-21T12:27:39.627Z,53.13
2023-05-21T12:30:07.029Z,54.02
2023-05-21T12:32:36.329Z,52.10
2023-05-21T12:35:03.174Z,52.99
2023-05-21T12:37:39.083Z,53.16
2023-05-21T12:40:07.997Z,53.09
2023-05-21T12:43:10.437Z,53.23
2023-05-21T12:48:13.059Z,53.71
2023-05-21T12:51:08.591Z,53.65
2023-05-21T12:53:38.184Z,54.01
2023-05-21T12:56:10.064Z,55.21
2023-05-21T12:58:38.325Z,53.30
2023-05-21T13:01:09.159Z,52.66
2023-05-21T13:03:37.290Z,53.48
2023-05-21T13:06:06.899Z,53.33
2023-05-21T13:08:39.359Z,54.29
2023-05-21T13:11:05.945Z,54.61
2023-05-21T13:13:32.568Z,53.84
2023-05-21T13:16:01.731Z,52.44
2023-05-21T13:18:28.335Z,52.83
2023-05-21T13:20:54.914Z,52.34
2023-05-21T13:23:22.588Z,52.30
2023-05-21T13:25:49.241Z,52.31
2023-05-21T13:28:16.947Z,52.01
2023-05-21T13:30:43.678Z,52.17
2023-05-21T13:33:11.631Z,52.77
2023-05-21T13:35:38.312Z,53.21
2023-05-21T13:38:04.883Z,53.13
2023-05-21T13:40:31.673Z,53.28
2023-05-21T13:43:03.994Z,53.96
2023-05-21T13:45:30.824Z,52.83
2023-05-21T13:48:06.508Z,52.30
2023-05-21T13:50:33.200Z,54.01
2023-05-21T13:52:59.818Z,52.98
2023-05-21T13:55:26.336Z,52.80
2023-05-21T13:57:52.957Z,52.24
2023-05-21T14:00:19.631Z,51.95
2023-05-21T14:02:46.266Z,52.34
2023-05-21T14:05:13.389Z,51.67
2023-05-21T14:07:40.196Z,51.49
2023-05-21T14:10:07.434Z,53.00
2023-05-21T14:12:35.679Z,53.16
2023-05-21T14:15:02.286Z,53.61
2023-05-21T14:17:28.838Z,53.11
2023-05-21T14:19:55.874Z,52.64
2023-05-21T14:22:22.583Z,55.06
2023-05-21T14:24:49.157Z,54.44
2023-05-21T14:27:17.297Z,55.70
2023-05-21T14:29:43.896Z,55.07
2023-05-21T14:32:10.526Z,55.01
2023-05-21T14:34:38.482Z,55.15
2023-05-21T14:37:05.474Z,56.22
2023-05-21T14:39:32.098Z,55.90
2023-05-21T14:41:58.663Z,56.26
2023-05-21T14:44:25.417Z,58.29
2023-05-21T14:46:52.096Z,56.92
2023-05-21T14:49:18.623Z,57.92
2023-05-21T14:51:45.189Z,57.44
2023-05-21T14:54:11.757Z,57.23
2023-05-21T14:56:38.356Z,57.09
2023-05-21T14:59:05.104Z,57.08
2023-05-21T15:01:31.734Z,57.99
2023-05-21T15:03:58.724Z,57.87
2023-05-21T15:06:25.531Z,57.76
2023-05-21T15:08:52.104Z,57.85
2023-05-21T15:11:18.602Z,57.62
2023-05-21T15:13:45.277Z,57.74
2023-05-21T15:16:11.845Z,57.72
2023-05-21T15:18:39.054Z,58.03
2023-05-21T15:21:07.867Z,56.76
2023-05-21T15:23:34.458Z,57.90
2023-05-21T15:26:01.070Z,57.56
2023-05-21T15:28:27.768Z,57.77
2023-05-21T15:30:54.526Z,57.82
2023-05-21T15:33:21.078Z,58.33
2023-05-21T15:35:47.802Z,57.75
2023-05-21T15:38:14.630Z,58.55
2023-05-21T15:40:42.628Z,58.13
2023-05-21T15:43:09.208Z,57.84
2023-05-21T15:45:36.355Z,57.67
2023-05-21T15:48:03.212Z,57.58
2023-05-21T15:50:29.840Z,58.08
2023-05-21T15:53:19.184Z,58.39
2023-05-21T15:55:46.021Z,57.75
2023-05-21T15:58:12.516Z,57.75
2023-05-21T16:00:39.199Z,58.02
2023-05-21T16:03:05.959Z,59.44
2023-05-21T16:05:32.633Z,58.43
2023-05-21T16:07:59.305Z,58.45
2023-05-21T16:10:25.816Z,58.93
2023-05-21T16:12:52.399Z,58.61
2023-05-21T16:15:18.973Z,57.77
2023-05-21T16:17:46.416Z,58.76
2023-05-21T16:20:13.350Z,58.50
2023-05-21T16:22:40.618Z,58.36
2023-05-21T16:25:07.807Z,59.03
2023-05-21T16:27:35.517Z,58.82
2023-05-21T16:30:02.307Z,59.05
2023-05-21T16:32:28.989Z,58.86
2023-05-21T16:34:55.633Z,58.62
2023-05-21T16:37:22.400Z,58.39
2023-05-21T16:39:48.857Z,58.96
2023-05-21T16:42:15.405Z,58.74
2023-05-21T16:44:42.016Z,59.17
2023-05-21T16:47:08.548Z,58.84
2023-05-21T16:49:35.083Z,59.07
2023-05-21T16:52:01.684Z,59.23
2023-05-21T16:54:28.267Z,58.92
2023-05-21T16:56:55.353Z,59.21
2023-05-21T16:59:21.871Z,59.41
2023-05-21T17:01:48.804Z,59.36
2023-05-21T17:04:15.553Z,59.87
2023-05-21T17:06:43.080Z,59.43
2023-05-21T17:09:09.723Z,59.41
2023-05-21T17:11:36.436Z,59.68
2023-05-21T17:14:03.875Z,59.95
2023-05-21T17:16:30.585Z,60.35
2023-05-21T17:18:57.079Z,59.81
2023-05-21T17:21:23.756Z,59.96
2023-05-21T17:23:50.287Z,59.79
2023-05-21T17:26:16.865Z,59.99
2023-05-21T17:28:43.736Z,60.32
2023-05-21T17:31:10.463Z,60.40
2023-05-21T17:33:38.084Z,60.55
2023-05-21T17:36:04.958Z,60.63
2023-05-21T17:38:31.462Z,60.54
2023-05-21T17:40:58.917Z,60.72
2023-05-21T17:43:27.513Z,60.99
2023-05-21T17:45:54.091Z,60.92
2023-05-21T17:48:20.867Z,60.58
2023-05-21T17:50:47.517Z,60.84
2023-05-21T17:53:15.482Z,61.12
2023-05-21T17:55:42.014Z,61.78
2023-05-21T17:58:09.932Z,61.61
2023-05-21T18:00:36.594Z,61.79
2023-05-21T18:03:03.655Z,61.93
2023-05-21T18:05:31.584Z,61.50
2023-05-21T18:08:01.150Z,61.86
2023-05-21T18:10:27.873Z,62.26
2023-05-21T18:12:54.555Z,61.81
2023-05-21T18:15:21.273Z,62.23
2023-05-21T18:17:48.047Z,62.36
2023-05-21T18:20:14.954Z,62.25
2023-05-21T18:22:41.597Z,62.27
2023-05-21T18:25:08.911Z,63.18
2023-05-21T18:27:35.478Z,62.49
2023-05-21T18:30:05.016Z,63.22
2023-05-21T18:32:32.663Z,62.83
2023-05-21T18:34:59.316Z,63.74
2023-05-21T18:37:27.146Z,63.30
2023-05-21T18:39:53.719Z,63.47
2023-05-21T18:42:20.242Z,63.47
2023-05-21T18:44:47.220Z,64.43
2023-05-21T18:47:13.815Z,64.26
2023-05-21T18:49:40.455Z,64.22
2023-05-21T18:52:07.695Z,64.10
2023-05-21T18:54:34.254Z,64.23
2023-05-21T18:57:01.009Z,64.02
2023-05-21T18:59:28.734Z,64.19
2023-05-21T19:01:55.427Z,64.98
2023-05-21T19:04:22.347Z,65.24
2023-05-21T19:07:30.521Z,64.43
2023-05-21T19:10:07.415Z,65.39
2023-05-21T19:12:36.100Z,66.58
2023-05-21T19:27:00.728Z,68.21
2023-05-21T19:29:48.368Z,68.14
2023-05-21T19:32:16.883Z,69.05
2023-05-21T19:34:43.578Z,69.32
2023-05-21T19:37:11.291Z,69.67
2023-05-21T19:39:41.199Z,69.79
2023-05-21T19:42:10.726Z,70.24
2023-05-21T19:44:40.680Z,70.29
2023-05-21T19:47:07.595Z,70.66
2023-05-21T19:49:35.450Z,71.02
2023-05-21T19:52:02.500Z,71.58
2023-05-21T19:54:29.181Z,71.67
2023-05-21T19:56:56.700Z,72.15
2023-05-21T19:59:23.389Z,71.70
2023-05-21T20:01:49.985Z,71.91
2023-05-21T20:04:16.816Z,72.44
2023-05-21T20:06:43.552Z,72.34
2023-05-21T20:09:13.104Z,72.57
2023-05-21T20:11:42.109Z,72.62
2023-05-21T20:14:08.920Z,73.49
2023-05-21T20:16:36.460Z,73.44
2023-05-21T20:19:03.732Z,73.63
2023-05-21T20:21:31.651Z,74.18
2023-05-21T20:23:58.332Z,74.18
2023-05-21T20:26:26.114Z,74.46
2023-05-21T20:28:52.707Z,74.56
2023-05-21T20:31:19.353Z,74.85
2023-05-21T20:33:46.318Z,74.71
2023-05-21T20:36:15.215Z,75.05
2023-05-21T20:38:42.067Z,74.92
2023-05-21T20:41:08.925Z,75.53
2023-05-21T20:43:37.193Z,75.56
2023-05-21T20:46:06.172Z,75.53
2023-05-21T20:48:33.875Z,75.99
2023-05-21T20:51:01.312Z,76.32
2023-05-21T20:53:27.893Z,76.15
2023-05-21T20:55:54.537Z,76.61
2023-05-21T20:58:22.486Z,76.50
2023-05-21T21:00:50.373Z,76.58
2023-05-21T21:03:18.414Z,76.37
2023-05-21T21:05:45.056Z,77.07
2023-05-21T21:08:13.270Z,77.28
2023-05-21T21:10:42.305Z,77.35
2023-05-21T21:13:08.904Z,77.18
2023-05-21T21:15:36.256Z,77.19
2023-05-21T21:18:03.370Z,77.62
2023-05-21T21:20:30.098Z,77.35
2023-05-21T21:22:56.672Z,77.74
2023-05-21T21:25:23.244Z,77.78
2023-05-21T21:27:50.022Z,77.83
2023-05-21T21:30:16.591Z,78.32
2023-05-21T21:32:43.344Z,78.41
2023-05-21T21:35:10.561Z,78.00
2023-05-21T21:37:37.093Z,78.34
2023-05-21T21:40:03.968Z,78.63
2023-05-21T21:42:30.553Z,78.47
2023-05-21T21:44:57.102Z,78.61
2023-05-21T21:47:23.736Z,78.57
2023-05-21T21:49:50.439Z,78.59
2023-05-21T21:52:17.493Z,78.72
2023-05-21T21:54:44.024Z,78.59
2023-05-21T21:57:10.645Z,78.94
2023-05-21T21:59:38.228Z,79.19
2023-05-21T22:02:04.875Z,79.37
2023-05-21T22:04:31.431Z,79.66
2023-05-21T22:06:57.972Z,79.25
2023-05-21T22:09:24.483Z,79.42
2023-05-21T22:11:52.004Z,79.89
2023-05-21T22:14:19.436Z,80.04
2023-05-21T22:16:47.503Z,80.33
2023-05-21T22:19:15.671Z,80.37
2023-05-21T22:21:43.206Z,80.50
2023-05-21T22:24:24.247Z,80.51
2023-05-21T22:26:57.200Z,80.62
2023-05-21T22:29:23.789Z,80.99
2023-05-21T22:31:50.485Z,81.24
2023-05-21T22:34:17.135Z,81.08
2023-05-21T22:36:44.716Z,81.32
2023-05-21T22:39:11.272Z,81.53
2023-05-21T22:41:37.933Z,81.19
2023-05-21T22:44:04.613Z,81.42
2023-05-21T22:46:31.920Z,81.87
2023-05-21T22:49:00.160Z,82.24
2023-05-21T22:51:28.747Z,82.26
2023-05-21T22:53:56.347Z,82.20
2023-05-21T22:56:23.013Z,82.36
2023-05-21T22:58:50.478Z,82.60
2023-05-21T23:01:17.224Z,82.47
2023-05-21T23:03:44.486Z,82.72
2023-05-21T23:06:12.289Z,82.65
2023-05-21T23:08:38.961Z,82.82
2023-05-21T23:11:06.451Z,82.94
2023-05-21T23:13:33.070Z,83.15
2023-05-21T23:15:59.663Z,83.24
2023-05-21T23:18:26.293Z,83.32
2023-05-21T23:20:53.155Z,82.77
2023-05-21T23:23:19.824Z,83.25
2023-05-21T23:25:46.355Z,83.44
2023-05-21T23:28:12.867Z,83.39
2023-05-21T23:30:40.626Z,83.24
2023-05-21T23:33:07.338Z,83.17
2023-05-21T23:35:33.917Z,83.47
2023-05-21T23:38:00.476Z,84.13
2023-05-21T23:40:27.034Z,84.98
2023-05-21T23:42:55.745Z,84.73
2023-05-21T23:45:22.378Z,85.68
2023-05-21T23:47:49.125Z,86.31
2023-05-21T23:50:15.828Z,87.50
2023-05-21T23:52:42.402Z,87.51
2023-05-21T23:55:11.535Z,87.74
2023-05-21T23:57:38.463Z,87.64
